Time;durP1;ratioP1;P1;durP2;ratioP2;P2;SDS_P1;SDS_P2;PMS_P1;PMS_P2;Temp;Humidity;BMP_temperature;BMP_pressure;BME280_temperature;BME280_humidity;BME280_pressure;Samples;Min_cycle;Max_cycle;Signal;HPM_P1;HPM_P2
2022/12/27 00:01:38;;;;;;;8.13;5.40;;;;;;;0.81;85.23;97171.91;5136519;27;20504;-64
2022/12/27 00:04:06;;;;;;;7.25;4.13;;;;;;;0.78;85.82;97177.84;5136407;27;20043;-65
2022/12/27 00:06:38;;;;;;;6.68;4.22;;;;;;;0.69;85.96;97177.78;5136432;27;20051;-66
2022/12/27 00:09:07;;;;;;;7.10;4.50;;;;;;;0.56;85.69;97175.03;5136159;27;20051;-63
2022/12/27 00:11:39;;;;;;;5.50;3.65;;;;;;;0.62;85.47;97176.81;5136302;27;20464;-64
2022/12/27 00:14:16;;;;;;;6.30;3.83;;;;;;;0.58;85.25;97172.47;5136256;27;20557;-65
2022/12/27 00:16:50;;;;;;;6.85;4.07;;;;;;;0.49;85.16;97175.81;5136097;27;20043;-64
2022/12/27 00:19:29;;;;;;;8.48;3.88;;;;;;;0.34;85.02;97173.91;5136004;27;20563;-62
2022/12/27 00:22:01;;;;;;;10.82;4.45;;;;;;;0.33;85.58;97177.34;5135923;27;20054;-63
2022/12/27 00:24:34;;;;;;;4.75;3.42;;;;;;;0.35;85.54;97173.06;5135934;27;20050;-63
2022/12/27 00:27:10;;;;;;;5.60;3.53;;;;;;;0.25;85.70;97170.34;5135785;27;20054;-61
2022/12/27 00:29:38;;;;;;;8.85;3.90;;;;;;;0.21;86.31;97173.75;5135076;27;20120;-64
2022/12/27 00:32:08;;;;;;;6.30;4.38;;;;;;;0.14;88.19;97174.50;5135930;27;20464;-64
2022/12/27 00:34:37;;;;;;;7.78;4.47;;;;;;;0.20;88.99;97163.44;5135818;27;20055;-63
2022/12/27 00:37:05;;;;;;;5.90;4.35;;;;;;;0.25;88.30;97164.38;5135932;27;20508;-62
2022/12/27 00:39:36;;;;;;;5.32;3.70;;;;;;;0.31;87.43;97164.44;5135908;27;20051;-64
2022/12/27 00:42:06;;;;;;;9.50;4.60;;;;;;;0.28;87.98;97166.97;5135621;27;20172;-65
2022/12/27 00:44:34;;;;;;;10.93;4.32;;;;;;;0.28;88.40;97168.69;5135481;27;20054;-65
2022/12/27 00:47:01;;;;;;;8.82;4.57;;;;;;;0.22;89.34;97162.63;5135458;27;20047;-66
2022/12/27 00:49:33;;;;;;;11.43;5.25;;;;;;;0.31;90.19;97151.56;5135537;27;20047;-65
2022/12/27 00:52:01;;;;;;;10.48;4.65;;;;;;;0.44;90.53;97154.28;5135437;27;20175;-67
2022/12/27 00:54:30;;;;;;;6.60;4.55;;;;;;;0.46;89.84;97166.34;5135360;27;20393;-66
2022/12/27 00:56:58;;;;;;;6.97;4.85;;;;;;;0.54;89.33;97157.84;5135283;27;20496;-61
2022/12/27 00:59:27;;;;;;;5.75;4.18;;;;;;;0.61;89.36;97155.34;5135314;27;20111;-64
2022/12/27 01:01:54;;;;;;;7.25;3.58;;;;;;;0.64;87.69;97164.84;5135172;27;20058;-66
2022/12/27 01:04:23;;;;;;;5.28;4.03;;;;;;;0.65;87.39;97165.69;5135250;27;20072;-63
2022/12/27 01:06:51;;;;;;;5.82;4.00;;;;;;;0.57;87.19;97165.63;5135169;27;20054;-64
2022/12/27 01:09:18;;;;;;;7.30;3.85;;;;;;;0.60;86.91;97163.91;5135064;27;20056;-66
2022/12/27 01:11:49;;;;;;;8.63;3.85;;;;;;;0.59;86.37;97154.47;5135018;27;20043;-63
2022/12/27 01:14:17;;;;;;;6.40;3.65;;;;;;;0.60;86.29;97147.63;5134920;27;20660;-63
2022/12/27 01:16:46;;;;;;;5.53;4.03;;;;;;;0.57;86.18;97165.63;5135036;27;20519;-63
2022/12/27 01:19:14;;;;;;;5.95;3.72;;;;;;;0.52;85.73;97162.97;5134745;27;20100;-66
2022/12/27 01:21:43;;;;;;;8.30;3.30;;;;;;;0.48;85.63;97161.22;5135006;27;20055;-64
2022/12/27 01:24:13;;;;;;;7.70;4.18;;;;;;;0.49;85.21;97156.06;5134915;27;20047;-64
2022/12/27 01:26:42;;;;;;;7.03;4.30;;;;;;;0.46;85.51;97150.91;5134880;27;20552;-62
2022/12/27 01:29:12;;;;;;;6.15;3.60;;;;;;;0.42;86.34;97146.53;5134671;27;20051;-63
2022/12/27 01:31:40;;;;;;;6.78;4.07;;;;;;;0.45;87.12;97146.56;5134789;27;20047;-65
2022/12/27 01:34:08;;;;;;;9.13;4.43;;;;;;;0.45;87.09;97156.03;5134716;27;20055;-61
2022/12/27 01:36:35;;;;;;;5.82;3.75;;;;;;;0.45;86.95;97141.44;5134694;27;20047;-62
2022/12/27 01:39:05;;;;;;;14.10;4.70;;;;;;;0.43;86.82;97140.56;5134473;27;20043;-62
2022/12/27 01:44:49;;;;;;;13.23;5.90;;;;;;;0.47;88.08;97136.31;5134428;27;20054;-61
2022/12/27 01:47:23;;;;;;;7.25;5.05;;;;;;;0.49;87.08;97126.91;5134314;27;20107;-63
2022/12/27 01:50:01;;;;;;;6.07;3.33;;;;;;;0.39;86.96;97130.22;5134443;27;20043;-64
2022/12/27 01:52:35;;;;;;;5.75;3.30;;;;;;;0.40;86.25;97131.94;5134354;27;20043;-66
2022/12/27 01:55:09;;;;;;;6.45;3.35;;;;;;;0.40;86.13;97125.09;5134373;27;20103;-65
2022/12/27 01:57:37;;;;;;;4.97;3.13;;;;;;;0.40;86.05;97126.78;5134139;27;20480;-65
2022/12/27 02:00:07;;;;;;;5.93;2.88;;;;;;;0.34;86.26;97117.28;5134257;27;20047;-65
2022/12/27 02:02:35;;;;;;;7.22;3.80;;;;;;;0.29;86.59;97122.38;5134350;27;20078;-63
2022/12/27 02:05:05;;;;;;;7.80;4.75;;;;;;;0.34;87.41;97118.16;5134262;27;20116;-64
2022/12/27 02:07:47;;;;;;;5.73;3.73;;;;;;;0.44;87.66;97110.50;5134246;27;20100;-64
2022/12/27 02:10:15;;;;;;;5.55;3.60;;;;;;;0.44;87.32;97106.25;5134239;27;20045;-65
2022/12/27 02:12:42;;;;;;;4.15;2.92;;;;;;;0.47;87.21;97110.56;5134301;27;20388;-61
2022/12/27 02:15:09;;;;;;;5.72;3.70;;;;;;;0.42;87.22;97113.06;5134300;28;20074;-64
2022/12/27 02:17:38;;;;;;;9.05;4.63;;;;;;;0.40;86.99;97101.03;5134113;28;20079;-61
2022/12/27 02:20:13;;;;;;;5.10;3.13;;;;;;;0.32;87.20;97104.38;5134034;28;20050;-64
2022/12/27 02:26:34;;;;;;;7.32;3.35;;;;;;;0.27;88.89;97102.63;5134174;28;20451;-64
2022/12/27 02:29:15;;;;;;;10.13;3.30;;;;;;;0.33;88.46;97097.53;5133925;28;20054;-62
2022/12/27 02:31:49;;;;;;;4.57;3.03;;;;;;;0.35;88.32;97101.84;5133986;28;20106;-63
2022/12/27 02:34:23;;;;;;;5.55;3.00;;;;;;;0.32;88.75;97106.97;5134178;28;20596;-65
2022/12/27 02:36:52;;;;;;;4.20;3.30;;;;;;;0.33;88.38;97102.69;5134138;28;20108;-64
2022/12/27 02:39:20;;;;;;;4.80;2.92;;;;;;;0.34;88.40;97100.13;5134004;28;20047;-65
2022/12/27 02:53:06;;;;;;;3.88;2.78;;;;;;;0.36;89.86;97100.16;5134289;27;20081;-61
2022/12/27 02:59:14;;;;;;;4.80;3.22;;;;;;;0.22;88.35;97082.84;5054531;28;20056;-63
2022/12/27 03:04:57;;;;;;;8.50;3.35;;;;;;;0.21;88.38;97091.38;5132149;27;20049;-61
2022/12/27 03:07:32;;;;;;;5.07;3.33;;;;;;;0.24;88.60;97091.41;5137479;27;20047;-62
2022/12/27 03:16:14;;;;;;;4.28;2.55;;;;;;;0.25;89.05;97075.13;5137493;27;20085;-66
2022/12/27 03:19:02;;;;;;;8.50;4.45;;;;;;;0.19;89.47;97080.22;5137217;27;20100;-61
2022/12/27 03:27:09;;;;;;;6.50;3.15;;;;;;;0.23;89.38;97081.09;5137348;27;20054;-64
2022/12/27 03:35:22;;;;;;;4.43;2.83;;;;;;;0.34;89.02;97079.53;5053717;28;20127;-64
2022/12/27 03:38:02;;;;;;;5.50;3.10;;;;;;;0.34;89.04;97079.53;5118439;27;20075;-67
2022/12/27 03:43:28;;;;;;;8.07;3.15;;;;;;;0.34;88.53;97082.13;5136009;27;20059;-63
2022/12/27 03:48:54;;;;;;;5.78;2.97;;;;;;;0.28;88.82;97069.16;5136960;27;20050;-65
2022/12/27 03:51:26;;;;;;;6.07;3.00;;;;;;;0.25;88.53;97071.72;5136819;27;20378;-62
2022/12/27 03:53:58;;;;;;;5.22;3.03;;;;;;;0.23;89.01;97084.56;5136709;27;20382;-66
2022/12/27 03:56:26;;;;;;;6.78;2.92;;;;;;;0.25;89.86;97077.69;5136835;27;20082;-65
2022/12/27 03:58:55;;;;;;;4.85;3.00;;;;;;;0.39;90.44;97078.72;5136589;27;20130;-63
2022/12/27 04:01:22;;;;;;;4.38;3.05;;;;;;;0.31;90.00;97069.22;5136636;27;20126;-63
2022/12/27 04:03:49;;;;;;;5.70;3.38;;;;;;;0.38;90.02;97077.84;5136584;27;20528;-63
2022/12/27 04:06:16;;;;;;;4.30;3.17;;;;;;;0.41;89.67;97071.88;5135222;27;20381;-63
2022/12/27 04:36:10;;;;;;;4.60;2.92;;;;;;;0.16;89.22;97080.19;5135858;27;20462;-61
2022/12/27 04:38:37;;;;;;;6.20;2.90;;;;;;;0.11;89.41;97081.81;5135549;27;20120;-65
2022/12/27 04:55:13;;;;;;;5.50;2.75;;;;;;;0.19;90.34;97087.06;5135560;27;20096;-66
2022/12/27 04:57:42;;;;;;;9.02;3.58;;;;;;;0.24;90.47;97090.59;5135262;27;20074;-63
2022/12/27 05:02:54;;;;;;;4.55;2.90;;;;;;;0.27;90.24;97100.88;5135508;27;20515;-63
2022/12/27 05:05:22;;;;;;;3.97;2.97;;;;;;;0.33;89.66;97098.38;5135273;27;20499;-61
2022/12/27 05:16:03;;;;;;;5.75;2.20;;;;;;;0.23;88.21;97086.25;5120616;27;20043;-65
2022/12/27 05:18:30;;;;;;;5.28;2.58;;;;;;;0.28;88.99;97076.03;5135095;27;20129;-64
2022/12/27 05:21:02;;;;;;;3.83;2.58;;;;;;;0.26;88.64;97078.56;5134992;27;20126;-59
2022/12/27 05:26:19;;;;;;;4.93;2.60;;;;;;;0.25;88.83;97069.97;5135111;27;20054;-61
2022/12/27 05:28:49;;;;;;;2.63;2.42;;;;;;;0.22;88.64;97067.41;5134926;27;20047;-65
2022/12/27 05:31:16;;;;;;;8.68;3.83;;;;;;;0.23;88.63;97063.97;5134836;27;20047;-63
2022/12/27 05:33:43;;;;;;;4.07;2.55;;;;;;;0.27;87.80;97064.00;5134708;27;20047;-61
2022/12/27 05:36:11;;;;;;;6.93;3.40;;;;;;;0.12;88.10;97073.28;5134632;27;20047;-63
2022/12/27 05:38:39;;;;;;;3.83;2.60;;;;;;;0.17;88.08;97075.88;5134565;27;20497;-65
2022/12/27 05:41:07;;;;;;;3.97;2.40;;;;;;;0.17;87.06;97081.03;5134684;27;20542;-61
2022/12/27 05:43:35;;;;;;;4.53;3.05;;;;;;;0.01;87.67;97072.25;5134609;27;20043;-61
2022/12/27 05:46:05;;;;;;;4.38;2.53;;;;;;;0.05;88.32;97085.19;5093773;28;20079;-63
2022/12/27 05:48:33;;;;;;;19.40;8.35;;;;;;;0.04;90.46;97087.75;5093694;28;20052;-60
2022/12/27 05:51:05;;;;;;;9.93;5.35;;;;;;;0.15;91.08;97083.59;5093619;28;20047;-61
2022/12/27 05:53:32;;;;;;;6.70;4.10;;;;;;;0.15;89.65;97082.75;5093570;28;20101;-60
2022/12/27 05:56:00;;;;;;;3.08;2.45;;;;;;;0.11;89.52;97082.69;5093544;28;20496;-66
2022/12/27 05:58:28;;;;;;;3.67;2.42;;;;;;;0.21;89.82;97090.53;5093510;28;20044;-64
2022/12/27 06:00:55;;;;;;;7.22;2.60;;;;;;;0.06;89.61;97081.75;5093419;28;20044;-64
2022/12/27 06:03:24;;;;;;;3.15;2.47;;;;;;;0.14;90.18;97084.44;5093477;28;20087;-60
2022/12/27 06:05:52;;;;;;;5.30;3.05;;;;;;;0.24;91.14;97093.16;5093506;28;20463;-62
2022/12/27 06:08:19;;;;;;;3.72;2.63;;;;;;;0.36;91.58;97093.28;5093362;28;20101;-67
2022/12/27 06:10:46;;;;;;;3.20;2.42;;;;;;;0.33;91.04;97087.25;5093420;28;20459;-63
2022/12/27 06:13:13;;;;;;;6.20;2.78;;;;;;;0.41;90.43;97093.34;5093300;28;20393;-61
2022/12/27 06:15:40;;;;;;;9.20;4.25;;;;;;;0.44;89.94;97092.50;5093314;28;20040;-61
2022/12/27 06:18:08;;;;;;;3.90;3.05;;;;;;;0.59;90.18;97099.53;5093196;28;20113;-66
2022/12/27 06:20:36;;;;;;;4.53;2.30;;;;;;;0.65;89.08;97093.56;5093179;28;20040;-65
2022/12/27 06:23:04;;;;;;;5.60;3.40;;;;;;;0.72;88.71;97100.53;5093112;28;20552;-65
2022/12/27 06:25:32;;;;;;;10.95;4.40;;;;;;;0.86;89.51;97108.38;5093114;28;20074;-63
2022/12/27 06:27:59;;;;;;;6.70;3.42;;;;;;;1.39;91.50;97099.38;5093756;28;20048;-63
2022/12/27 06:30:26;;;;;;;2.95;2.30;;;;;;;2.71;89.87;97105.19;5097347;28;20052;-62
2022/12/27 06:32:54;;;;;;;4.68;2.45;;;;;;;4.35;79.76;97090.38;5097302;28;20048;-66
2022/12/27 06:35:21;;;;;;;1.83;1.60;;;;;;;5.79;72.93;97085.03;5097283;28;20129;-62
2022/12/27 06:37:49;;;;;;;3.28;2.53;;;;;;;6.75;69.59;97091.72;5097296;28;20044;-65
2022/12/27 06:40:19;;;;;;;3.85;1.88;;;;;;;7.56;65.43;97095.72;5097177;28;20482;-65
2022/12/27 06:42:46;;;;;;;2.03;1.60;;;;;;;7.99;62.53;97088.88;5097250;28;20173;-64
2022/12/27 06:45:17;;;;;;;2.42;1.92;;;;;;;8.58;60.50;97087.72;5124554;27;20047;-65
2022/12/27 06:47:45;;;;;;;2.40;1.70;;;;;;;8.70;58.89;97094.41;5138051;27;20039;-66
2022/12/27 06:50:12;;;;;;;4.30;2.10;;;;;;;8.39;59.62;97084.59;5138035;27;20051;-66
2022/12/27 06:52:39;;;;;;;2.08;1.83;;;;;;;7.93;60.66;97087.25;5137962;27;20078;-66
2022/12/27 06:55:09;;;;;;;6.72;2.45;;;;;;;7.44;61.76;97086.38;5137817;27;20039;-67
2022/12/27 06:57:36;;;;;;;5.80;2.95;;;;;;;6.91;63.82;97074.16;5137749;27;20047;-63
2022/12/27 07:00:05;;;;;;;4.95;3.05;;;;;;;6.54;65.55;97085.94;5137501;27;20054;-66
2022/12/27 07:02:32;;;;;;;5.05;3.35;;;;;;;6.17;66.62;97084.66;5137600;27;20055;-67
2022/12/27 07:05:01;;;;;;;3.70;2.30;;;;;;;5.85;67.84;97083.25;5137561;27;20039;-65
2022/12/27 07:07:28;;;;;;;2.53;2.05;;;;;;;5.77;69.25;97086.78;5137515;27;20405;-64
2022/12/27 07:09:55;;;;;;;2.25;2.00;;;;;;;5.86;70.57;97084.94;5137436;27;20057;-66
2022/12/27 07:12:27;;;;;;;4.80;2.58;;;;;;;6.01;71.11;97084.81;5137419;27;20386;-63
2022/12/27 07:14:54;;;;;;;2.80;2.20;;;;;;;6.37;72.83;97080.94;5137717;27;20055;-65
2022/12/27 07:17:21;;;;;;;3.67;2.08;;;;;;;6.62;71.24;97083.25;5137364;27;20099;-66
2022/12/27 07:19:48;;;;;;;3.53;2.00;;;;;;;6.88;71.79;97069.88;5137240;27;20055;-66
2022/12/27 07:22:16;;;;;;;2.33;1.80;;;;;;;8.40;69.30;97069.84;5137314;27;20047;-63
2022/12/27 07:24:43;;;;;;;4.90;2.30;;;;;;;9.29;64.97;97076.56;5137356;27;20047;-63
2022/12/27 07:27:10;;;;;;;3.33;1.92;;;;;;;9.25;64.49;97067.09;5137135;27;20047;-65
2022/12/27 07:29:40;;;;;;;2.10;1.83;;;;;;;10.30;62.64;97075.69;5137139;27;20054;-63
2022/12/27 07:32:08;;;;;;;2.03;1.60;;;;;;;12.38;57.47;97077.00;5137143;27;20644;-60
2022/12/27 07:34:38;;;;;;;2.95;1.63;;;;;;;14.39;51.94;97071.53;5136994;27;20092;-64
2022/12/27 07:37:06;;;;;;;2.53;1.70;;;;;;;15.80;48.12;97067.56;5137031;27;20507;-66
2022/12/27 07:39:33;;;;;;;3.00;1.70;;;;;;;17.00;45.38;97063.09;5136664;27;20090;-66
2022/12/27 07:42:01;;;;;;;1.52;1.27;;;;;;;17.17;44.28;97070.13;5136820;27;20046;-66
2022/12/27 07:44:28;;;;;;;1.92;1.20;;;;;;;16.44;45.13;97074.03;5136533;27;20051;-64
2022/12/27 07:47:02;;;;;;;3.70;1.80;;;;;;;15.67;47.18;97075.28;5136861;27;20126;-62
2022/12/27 07:49:30;;;;;;;6.00;5.50;;;;;;;16.40;45.16;97078.63;5136690;27;20096;-63
2022/12/27 07:51:57;;;;;;;4.60;1.85;;;;;;;17.65;42.10;97077.97;5136592;27;20051;-63
2022/12/27 07:54:25;;;;;;;4.82;1.90;;;;;;;18.90;39.51;97081.09;5136702;27;20047;-64
2022/12/27 07:56:56;;;;;;;4.03;2.20;;;;;;;20.28;36.84;97077.50;5136615;27;20039;-67
2022/12/27 07:59:26;;;;;;;2.10;1.58;;;;;;;20.91;36.06;97079.38;5136572;27;20448;-63
2022/12/27 08:02:05;;;;;;;7.35;1.88;;;;;;;21.64;34.66;97074.09;5136647;27;20070;-66
2022/12/27 08:04:37;;;;;;;5.83;1.90;;;;;;;21.52;34.17;97083.84;5136490;27;20055;-66
2022/12/27 08:07:07;;;;;;;4.20;2.13;;;;;;;20.02;36.42;97083.66;5136342;27;20799;-63
2022/12/27 08:09:39;;;;;;;3.05;2.30;;;;;;;18.71;38.47;97077.91;5136192;27;20135;-64
2022/12/27 08:12:09;;;;;;;3.83;2.72;;;;;;;17.59;40.32;97070.38;5136378;27;20480;-65
2022/12/27 08:14:36;;;;;;;5.80;3.15;;;;;;;16.56;41.62;97076.03;5136261;27;20130;-64
2022/12/27 08:17:07;;;;;;;5.47;2.72;;;;;;;15.53;44.09;97062.75;5136282;27;20404;-62
2022/12/27 08:19:36;;;;;;;3.30;2.90;;;;;;;16.11;43.85;97067.84;5136077;27;20054;-64
2022/12/27 08:22:04;;;;;;;6.28;3.67;;;;;;;17.55;41.45;97067.06;5136110;27;20115;-64
2022/12/27 08:24:32;;;;;;;4.50;3.30;;;;;;;18.81;38.73;97068.44;5136344;27;20039;-64
2022/12/27 08:26:59;;;;;;;4.22;3.10;;;;;;;20.14;35.88;97065.19;5136050;27;20481;-63
2022/12/27 08:29:26;;;;;;;6.10;3.00;;;;;;;21.24;34.42;97058.41;5135855;27;20039;-64
2022/12/27 08:31:54;;;;;;;3.05;2.65;;;;;;;22.19;32.26;97067.38;5135798;27;20107;-65
2022/12/27 08:34:22;;;;;;;4.43;2.55;;;;;;;22.16;32.25;97065.81;5135889;27;20484;-65
2022/12/27 08:36:52;;;;;;;4.40;2.72;;;;;;;22.18;31.24;97061.19;5135817;27;20100;-64
2022/12/27 08:39:20;;;;;;;3.78;2.40;;;;;;;22.37;31.23;97062.44;5135761;27;20082;-65
2022/12/27 08:41:47;;;;;;;3.03;2.20;;;;;;;21.73;31.67;97067.22;5135857;27;20051;-64
2022/12/27 08:44:14;;;;;;;2.92;2.38;;;;;;;21.27;32.72;97060.84;5135463;27;20051;-64
2022/12/27 08:46:45;;;;;;;3.13;2.70;;;;;;;20.77;32.38;97056.44;5135508;27;20055;-66
2022/12/27 08:49:14;;;;;;;5.45;2.72;;;;;;;19.81;34.25;97056.75;5135595;27;20104;-66
2022/12/27 08:51:42;;;;;;;3.55;2.80;;;;;;;18.75;35.59;97050.28;5134838;27;20066;-64
2022/12/27 08:54:13;;;;;;;6.53;2.92;;;;;;;17.72;37.31;97046.69;5135345;27;20465;-65
2022/12/27 08:56:44;;;;;;;;;;;;;;;16.83;39.75;97042.91;5135955;27;20057;-63
2022/12/27 08:59:13;;;;;;;4.30;3.00;;;;;;;15.95;41.40;97047.47;5135341;27;19925;-63
2022/12/27 09:01:44;;;;;;;4.32;3.40;;;;;;;15.12;43.63;97046.31;5135382;27;20051;-61
2022/12/27 09:04:12;;;;;;;7.70;3.33;;;;;;;14.49;45.44;97048.31;5135185;27;20398;-62
2022/12/27 09:06:46;;;;;;;5.20;3.05;;;;;;;14.07;47.00;97044.03;5135215;27;20053;-65
2022/12/27 09:09:16;;;;;;;7.68;3.40;;;;;;;13.77;48.64;97035.66;5135157;27;20043;-64
2022/12/27 09:11:45;;;;;;;;;;;;;;;13.58;48.55;97035.56;5135495;27;20050;-64
2022/12/27 09:14:22;;;;;;;4.15;2.78;;;;;;;13.48;47.53;97024.56;5135167;27;19920;-64
2022/12/27 09:17:05;;;;;;;5.93;2.83;;;;;;;13.53;46.21;97024.41;5134896;27;20130;-62
2022/12/27 09:19:34;;;;;;;4.57;2.80;;;;;;;13.42;47.85;97026.63;5134840;27;20131;-65
2022/12/27 09:22:05;;;;;;;3.30;2.50;;;;;;;13.35;46.94;97024.25;5135010;27;20481;-64
2022/12/27 09:24:35;;;;;;;4.38;2.92;;;;;;;13.38;47.61;97008.34;5134942;27;20053;-63
2022/12/27 09:27:04;;;;;;;3.42;2.80;;;;;;;13.12;49.49;97014.66;5134827;27;20494;-63
2022/12/27 09:29:37;;;;;;;4.20;2.42;;;;;;;13.00;47.97;97006.38;5134790;27;20055;-65
2022/12/27 09:32:07;;;;;;;3.25;2.60;;;;;;;13.20;47.77;97012.59;5134709;27;20055;-63
2022/12/27 09:34:40;;;;;;;4.55;2.67;;;;;;;13.34;48.44;97013.78;5134752;27;20385;-62
2022/12/27 09:37:12;;;;;;;2.65;2.25;;;;;;;13.37;48.83;97008.41;5134689;27;20511;-64
2022/12/27 09:39:42;;;;;;;4.43;2.60;;;;;;;13.44;48.45;97004.59;5134635;27;20051;-63
2022/12/27 09:42:23;;;;;;;4.15;3.00;;;;;;;13.53;48.88;97006.00;5134525;27;20049;-64
2022/12/27 09:45:00;;;;;;;3.22;2.35;;;;;;;13.48;48.86;97007.94;5134264;27;20146;-63
2022/12/27 09:47:38;;;;;;;3.13;2.63;;;;;;;13.56;48.40;97002.38;5133706;27;20492;-65
2022/12/27 09:50:13;;;;;;;3.38;2.35;;;;;;;13.69;48.02;97000.09;5134296;27;20497;-63
2022/12/27 09:52:50;;;;;;;4.43;2.47;;;;;;;13.56;47.92;96997.13;5134379;27;20138;-65
2022/12/27 09:55:24;;;;;;;7.35;4.10;;;;;;;13.34;48.48;96993.59;5134496;27;20122;-64
2022/12/27 09:57:55;;;;;;;5.15;3.15;;;;;;;13.23;48.10;96986.19;5134374;27;20053;-65
2022/12/27 10:00:24;;;;;;;4.90;4.15;;;;;;;13.20;48.52;96985.44;5134178;27;20043;-62
2022/12/27 10:02:57;;;;;;;5.07;4.30;;;;;;;13.33;49.15;96978.78;5133101;27;20158;-63
2022/12/27 10:05:35;;;;;;;6.30;3.65;;;;;;;13.41;48.55;96975.81;5134255;27;20081;-64
2022/12/27 10:08:34;;;;;;;5.80;2.95;;;;;;;13.30;49.27;96973.63;5133808;27;20043;-63
2022/12/27 10:11:34;;;;;;;4.80;2.95;;;;;;;13.42;49.52;96961.75;5134151;27;20047;-64
2022/12/27 10:14:19;;;;;;;3.28;2.38;;;;;;;13.64;48.06;96960.88;5134020;27;20046;-65
2022/12/27 10:16:54;;;;;;;3.42;2.75;;;;;;;13.76;47.61;96962.94;5134008;28;20059;-62
2022/12/27 10:19:29;;;;;;;3.58;2.72;;;;;;;13.80;46.99;96961.03;5134031;28;20050;-64
2022/12/27 10:22:12;;;;;;;4.93;2.67;;;;;;;13.89;46.41;96960.66;5134003;28;20094;-62
2022/12/27 10:24:45;;;;;;;4.43;2.65;;;;;;;13.95;46.69;96953.38;5134059;28;20528;-65
2022/12/27 10:27:22;;;;;;;4.72;3.05;;;;;;;14.08;47.10;96958.94;5133949;28;20553;-64
2022/12/27 10:29:52;;;;;;;5.82;4.43;;;;;;;14.15;46.91;96955.97;5133982;28;20054;-63
2022/12/27 10:32:21;;;;;;;;;;;;;;;14.23;46.75;96950.34;5134341;28;20515;-63
2022/12/27 10:34:57;;;;;;;3.83;2.90;;;;;;;14.22;46.26;96950.41;5133923;28;20010;-63
2022/12/27 10:37:24;;;;;;;6.47;3.20;;;;;;;14.27;47.73;96953.69;5133783;28;20103;-64
2022/12/27 10:39:51;;;;;;;4.07;3.17;;;;;;;14.42;47.33;96954.75;5133826;28;20496;-62
2022/12/27 10:42:33;;;;;;;4.47;2.65;;;;;;;14.49;47.42;96950.91;5133928;28;20048;-65
2022/12/27 10:45:27;;;;;;;4.68;2.75;;;;;;;14.52;46.45;96947.28;5133773;28;20043;-64
2022/12/27 10:47:57;;;;;;;5.55;2.85;;;;;;;14.58;46.10;96948.75;5133891;28;20051;-65
2022/12/27 10:50:29;;;;;;;3.80;2.45;;;;;;;14.59;45.74;96946.06;5133742;28;20054;-61
2022/12/27 10:52:57;;;;;;;4.43;3.08;;;;;;;14.63;46.50;96936.25;5133799;28;20058;-65
2022/12/27 10:55:36;;;;;;;5.28;2.40;;;;;;;14.76;45.59;96937.34;5133814;28;20047;-63
2022/12/27 10:58:35;;;;;;;4.10;2.78;;;;;;;14.90;45.73;96934.06;5133820;28;20058;-62
2022/12/27 11:01:14;;;;;;;4.47;2.80;;;;;;;15.06;45.80;96928.03;5133623;28;20047;-62
2022/12/27 11:03:42;;;;;;;5.95;3.40;;;;;;;15.15;45.47;96916.19;5133634;28;20075;-62
2022/12/27 11:06:19;;;;;;;4.18;2.90;;;;;;;15.24;45.26;96926.25;5133761;28;20054;-65
2022/12/27 11:08:47;;;;;;;6.22;3.00;;;;;;;15.24;45.19;96920.13;5133574;28;20061;-65
2022/12/27 11:11:18;;;;;;;3.80;2.67;;;;;;;15.31;44.94;96920.66;5133654;28;20043;-63
2022/12/27 11:13:48;;;;;;;5.68;3.10;;;;;;;15.40;45.02;96915.78;5133816;27;20051;-65
2022/12/27 11:16:24;;;;;;;4.13;3.20;;;;;;;15.48;44.69;96903.97;5137485;27;20054;-63
2022/12/27 11:18:56;;;;;;;6.32;2.85;;;;;;;15.49;44.78;96910.94;5137453;27;20053;-62
2022/12/27 11:21:25;;;;;;;3.78;2.70;;;;;;;15.53;44.14;96904.59;5137228;27;20058;-64
2022/12/27 11:23:55;;;;;;;3.97;2.80;;;;;;;15.53;44.28;96899.31;5137269;27;20074;-63
2022/12/27 11:26:28;;;;;;;3.17;2.75;;;;;;;15.57;43.43;96900.88;5137203;27;20551;-64
2022/12/27 11:29:00;;;;;;;4.32;2.92;;;;;;;15.53;44.53;96894.91;5137253;27;20051;-62
2022/12/27 11:31:33;;;;;;;4.57;2.83;;;;;;;15.58;43.94;96901.72;5137085;27;20139;-63
2022/12/27 11:34:05;;;;;;;4.35;2.85;;;;;;;15.60;43.89;96894.56;5137113;27;20043;-65
2022/12/27 11:36:36;;;;;;;4.25;2.67;;;;;;;15.67;43.91;96895.94;5137063;27;20054;-64
2022/12/27 11:39:06;;;;;;;8.88;3.38;;;;;;;15.58;43.85;96896.44;5137043;27;20076;-65
2022/12/27 11:41:46;;;;;;;3.97;2.92;;;;;;;15.52;44.87;96894.97;5136982;27;20480;-65
2022/12/27 11:44:24;;;;;;;3.83;2.53;;;;;;;15.49;44.81;96896.00;5136609;27;20418;-63
2022/12/27 11:46:57;;;;;;;2.60;2.40;;;;;;;15.46;45.19;96896.16;5136744;27;20434;-64
2022/12/27 11:49:29;;;;;;;5.25;3.30;;;;;;;15.47;44.71;96894.38;5136719;27;20092;-64
2022/12/27 11:52:23;;;;;;;3.25;2.63;;;;;;;15.48;44.86;96896.94;5136733;27;20043;-65
2022/12/27 11:55:27;;;;;;;4.72;3.05;;;;;;;15.48;44.07;96893.44;5136370;27;20055;-64
2022/12/27 11:58:26;;;;;;;3.72;2.50;;;;;;;15.39;44.47;96894.78;5136695;27;20047;-64
2022/12/27 12:01:01;;;;;;;5.00;3.30;;;;;;;15.43;44.77;96890.19;5136398;27;20511;-63
2022/12/27 12:04:00;;;;;;;3.45;3.13;;;;;;;15.48;45.02;96888.16;5136245;27;20044;-63
2022/12/27 12:06:45;;;;;;;5.25;3.20;;;;;;;15.56;44.69;96893.03;5136485;27;20054;-62
2022/12/27 12:09:42;;;;;;;3.70;2.58;;;;;;;15.54;44.08;96885.22;5136418;27;20083;-62
2022/12/27 12:12:49;;;;;;;4.20;2.85;;;;;;;15.59;43.99;96885.81;5136399;27;20051;-62
2022/12/27 12:15:45;;;;;;;6.47;2.55;;;;;;;15.61;43.85;96880.44;5136391;27;20115;-65
2022/12/27 12:18:58;;;;;;;3.45;2.80;;;;;;;15.65;44.35;96876.72;5136185;27;20047;-64
2022/12/27 12:21:30;;;;;;;4.57;2.63;;;;;;;15.61;44.59;96878.69;5136067;27;20130;-65
2022/12/27 12:24:25;;;;;;;3.90;3.05;;;;;;;15.60;44.86;96882.25;5136220;27;20100;-62
2022/12/27 12:27:04;;;;;;;5.60;3.38;;;;;;;15.57;44.41;96877.16;5114169;27;20130;-65
2022/12/27 12:29:55;;;;;;;4.50;2.95;;;;;;;15.52;44.93;96876.53;5135995;27;20396;-63
2022/12/27 12:32:40;;;;;;;;;;;;;;;15.47;45.43;96887.31;5136311;27;20055;-64
2022/12/27 12:35:32;;;;;;;5.75;3.15;;;;;;;15.41;45.33;96888.47;5135501;27;19966;-62
2022/12/27 12:38:20;;;;;;;4.38;3.17;;;;;;;15.40;45.50;96891.19;5135882;27;20058;-64
2022/12/27 12:41:31;;;;;;;7.90;3.47;;;;;;;15.49;45.32;96896.00;5135599;27;20047;-64
2022/12/27 12:44:30;;;;;;;10.10;4.35;;;;;;;15.63;45.23;96895.25;5135448;27;20505;-65
2022/12/27 12:47:04;;;;;;;7.22;3.35;;;;;;;15.72;44.56;96899.22;5135644;27;20047;-60
2022/12/27 12:49:52;;;;;;;3.80;2.67;;;;;;;15.79;44.15;96903.22;5135665;27;20055;-64
2022/12/27 12:52:55;;;;;;;6.32;2.60;;;;;;;15.88;43.94;96898.38;5135663;27;20130;-64
2022/12/27 12:55:41;;;;;;;3.90;2.35;;;;;;;15.96;44.19;96901.50;5133609;27;20051;-64
2022/12/27 12:58:22;;;;;;;4.70;2.40;;;;;;;15.98;43.40;96894.34;5135323;27;20590;-63
2022/12/27 13:01:05;;;;;;;4.60;3.00;;;;;;;16.01;43.06;96886.25;5135166;27;20139;-65
2022/12/27 13:04:09;;;;;;;2.60;2.40;;;;;;;16.04;43.24;96893.13;5135310;27;20047;-60
2022/12/27 13:07:01;;;;;;;4.60;2.25;;;;;;;16.03;43.79;96892.31;5135400;27;20047;-64
2022/12/27 13:09:50;;;;;;;3.42;2.40;;;;;;;16.07;43.06;96902.69;5135308;27;20121;-62
2022/12/27 13:12:28;;;;;;;5.63;2.72;;;;;;;16.04;43.56;96904.56;5135270;27;20050;-64
2022/12/27 13:15:19;;;;;;;3.35;2.42;;;;;;;16.04;43.35;96901.91;5135128;27;20057;-64
2022/12/27 13:18:01;;;;;;;7.63;2.85;;;;;;;16.06;42.67;96906.25;5135207;27;20133;-62
2022/12/27 13:20:51;;;;;;;4.97;2.50;;;;;;;16.03;42.81;96902.88;5134905;27;20039;-64
2022/12/27 13:23:31;;;;;;;6.40;2.38;;;;;;;16.03;43.22;96897.59;5124294;27;20043;-64
2022/12/27 13:26:07;;;;;;;6.47;2.92;;;;;;;16.00;43.69;96896.88;5134893;27;20039;-63
2022/12/27 13:28:46;;;;;;;4.43;2.63;;;;;;;15.98;43.40;96901.41;5134730;27;20557;-64
2022/12/27 13:31:29;;;;;;;3.67;2.58;;;;;;;15.96;43.39;96911.16;5134945;27;20047;-63
2022/12/27 13:34:07;;;;;;;5.45;2.70;;;;;;;15.92;43.51;96911.31;5134838;27;20057;-65
2022/12/27 13:36:54;;;;;;;5.28;4.07;;;;;;;15.92;43.79;96916.59;5134580;27;20043;-63
2022/12/27 13:39:36;;;;;;;7.03;4.25;;;;;;;15.88;43.47;96925.63;5134576;27;20455;-64
2022/12/27 13:42:28;;;;;;;3.78;2.40;;;;;;;15.78;43.06;96922.59;5134483;27;20050;-62
2022/12/27 13:45:11;;;;;;;3.30;2.10;;;;;;;15.75;42.79;96924.56;5134299;27;20107;-61
2022/12/27 13:47:55;;;;;;;3.60;2.58;;;;;;;15.68;42.66;96912.63;5134476;27;20050;-64
2022/12/27 13:50:51;;;;;;;2.88;2.42;;;;;;;15.70;42.98;96919.53;5134634;27;20069;-61
2022/12/27 13:53:55;;;;;;;3.50;2.97;;;;;;;15.60;43.56;96916.53;5134438;27;20043;-63